Time;durP1;ratioP1;P1;durP2;ratioP2;P2;SDS_P1;SDS_P2;PMS_P1;PMS_P2;Temp;Humidity;BMP_temperature;BMP_pressure;BME280_temperature;BME280_humidity;BME280_pressure;Samples;Min_cycle;Max_cycle;Signal;HPM_P1;HPM_P2
2022/01/15 00:01:43;;;;;;;44.80;18.00;;;6.30;99.90;;;;;;5008164;28;20354;-43
2022/01/15 00:04:09;;;;;;;47.85;20.60;;;6.30;99.90;;;;;;5009531;28;20030;-42
2022/01/15 00:06:35;;;;;;;39.45;19.25;;;6.30;99.90;;;;;;5009156;28;20500;-43
2022/01/15 00:09:00;;;;;;;41.53;18.65;;;6.20;99.90;;;;;;5008226;28;20037;-42
2022/01/15 00:11:26;;;;;;;38.28;18.38;;;6.30;99.90;;;;;;5009855;28;20014;-44
2022/01/15 00:14:43;;;;;;;42.38;18.58;;;6.30;99.90;;;;;;5008827;28;20631;-42
2022/01/15 00:16:56;;;;;;;44.88;20.05;;;6.30;99.90;;;;;;5003488;28;20037;-43
2022/01/15 00:19:33;;;;;;;45.90;19.55;;;6.20;99.90;;;;;;5009328;28;20123;-43
2022/01/15 00:21:58;;;;;;;42.13;18.25;;;6.20;99.90;;;;;;5008776;28;20495;-42
2022/01/15 00:24:24;;;;;;;40.17;18.42;;;6.20;99.90;;;;;;5008769;28;20034;-43
2022/01/15 00:26:50;;;;;;;42.83;18.17;;;6.20;99.90;;;;;;5009234;28;20025;-43
2022/01/15 00:29:16;;;;;;;41.08;18.08;;;6.20;99.90;;;;;;5008437;28;20439;-43
2022/01/15 00:31:41;;;;;;;41.47;17.42;;;6.10;99.90;;;;;;5009012;28;20479;-42
2022/01/15 00:34:07;;;;;;;42.20;17.45;;;6.20;99.90;;;;;;5008951;28;20026;-42
2022/01/15 00:36:38;;;;;;;41.20;16.63;;;6.10;99.90;;;;;;5008085;28;20133;-44
2022/01/15 00:39:07;;;;;;;39.97;17.88;;;6.10;99.90;;;;;;5008670;28;20022;-43
2022/01/15 00:41:36;;;;;;;41.17;17.95;;;6.10;99.90;;;;;;5008983;28;20121;-42
2022/01/15 00:44:13;;;;;;;40.28;17.55;;;6.10;99.90;;;;;;5007763;28;20480;-43
2022/01/15 00:46:39;;;;;;;43.50;18.25;;;6.00;99.90;;;;;;5008971;28;20034;-44
2022/01/15 00:49:04;;;;;;;41.17;17.60;;;6.00;99.90;;;;;;5008029;28;20045;-45
2022/01/15 00:51:30;;;;;;;41.15;17.00;;;6.00;99.90;;;;;;5008261;28;20036;-42
2022/01/15 00:53:56;;;;;;;47.42;18.42;;;6.00;99.90;;;;;;5008388;28;20716;-43
2022/01/15 00:56:21;;;;;;;43.25;17.27;;;6.00;99.90;;;;;;5008229;28;20026;-43
2022/01/15 00:58:47;;;;;;;41.30;18.00;;;6.00;99.90;;;;;;5008296;28;20038;-42
2022/01/15 01:01:12;;;;;;;40.72;16.83;;;6.00;99.90;;;;;;5008239;28;20030;-43
2022/01/15 01:03:38;;;;;;;42.00;17.58;;;6.00;99.90;;;;;;5007557;28;20393;-42
2022/01/15 01:06:03;;;;;;;43.45;19.00;;;6.00;99.90;;;;;;5008404;28;20129;-43
2022/01/15 01:08:38;;;;;;;47.38;17.98;;;6.00;99.90;;;;;;5007999;28;20485;-42
2022/01/15 01:11:11;;;;;;;39.15;17.60;;;6.00;99.90;;;;;;5007328;28;20026;-43
2022/01/15 01:22:52;;;;;;;36.17;15.40;;;5.90;99.90;;;;;;5007194;28;20111;-43
2022/01/15 01:24:20;;;;;;;38.38;16.10;;;5.80;99.90;;;;;;5000013;28;20049;-42
2022/01/15 01:26:53;;;;;;;38.03;16.15;;;5.90;99.90;;;;;;5007836;28;20101;-43
2022/01/15 01:34:32;;;;;;;34.85;15.52;;;5.80;99.90;;;;;;5007776;28;20409;-42
2022/01/15 01:39:43;;;;;;;36.88;14.77;;;5.80;99.90;;;;;;5007104;28;20038;-42
2022/01/15 01:42:27;;;;;;;33.20;14.40;;;5.80;99.90;;;;;;5007211;28;20496;-43
2022/01/15 01:45:09;;;;;;;32.83;14.85;;;5.80;99.90;;;;;;5008106;28;20101;-43
2022/01/15 01:47:44;;;;;;;34.67;15.38;;;5.80;99.90;;;;;;5003716;28;20024;-44
2022/01/15 01:50:13;;;;;;;33.90;14.63;;;5.80;99.90;;;;;;5007087;28;20038;-42
2022/01/15 01:52:39;;;;;;;29.25;13.43;;;5.80;99.90;;;;;;5007297;28;20087;-43
2022/01/15 01:55:06;;;;;;;32.42;13.98;;;5.80;99.90;;;;;;5007740;28;20053;-42
2022/01/15 01:57:32;;;;;;;32.65;13.68;;;5.80;99.90;;;;;;5007078;28;20056;-43
2022/01/15 01:59:58;;;;;;;38.75;14.13;;;5.80;99.90;;;;;;5006936;28;20036;-43
2022/01/15 02:02:26;;;;;;;37.75;13.98;;;5.80;99.90;;;;;;5007194;28;20041;-43
2022/01/15 02:04:57;;;;;;;33.00;13.85;;;5.80;99.90;;;;;;5007179;28;20097;-43
2022/01/15 02:07:25;;;;;;;32.33;13.68;;;5.70;99.90;;;;;;5006478;28;20029;-43
2022/01/15 02:09:51;;;;;;;32.60;13.40;;;5.80;99.90;;;;;;5007539;28;20085;-43
2022/01/15 02:12:17;;;;;;;29.92;12.52;;;5.80;99.90;;;;;;5007501;28;20068;-43
2022/01/15 02:14:42;;;;;;;33.05;13.45;;;5.80;99.90;;;;;;5005880;28;20042;-42
2022/01/15 02:17:08;;;;;;;35.28;13.20;;;5.70;99.90;;;;;;5007236;28;20409;-43
2022/01/15 02:19:44;;;;;;;30.13;11.35;;;5.70;99.90;;;;;;5007118;28;20041;-43
2022/01/15 02:24:54;;;;;;;22.38;10.95;;;5.70;99.90;;;;;;5007383;28;20061;-44
2022/01/15 02:27:19;;;;;;;25.65;10.80;;;5.70;99.90;;;;;;5006812;28;20469;-42
2022/01/15 02:29:45;;;;;;;23.90;11.32;;;5.70;99.90;;;;;;5006577;28;20404;-43
2022/01/15 02:32:10;;;;;;;25.63;11.52;;;5.60;99.90;;;;;;5007695;28;20022;-43
2022/01/15 02:34:36;;;;;;;31.10;12.57;;;5.60;99.90;;;;;;5007215;28;20120;-42
2022/01/15 02:37:02;;;;;;;27.48;11.90;;;5.60;99.90;;;;;;5006536;28;20067;-43
2022/01/15 02:39:28;;;;;;;23.45;10.52;;;5.60;99.90;;;;;;5007074;28;20511;-41
2022/01/15 02:41:59;;;;;;;29.40;12.40;;;5.60;99.90;;;;;;5006393;28;20080;-42
2022/01/15 02:44:25;;;;;;;28.33;11.45;;;5.60;99.90;;;;;;5007403;28;20022;-43
2022/01/15 02:49:17;;;;;;;26.38;11.88;;;5.60;99.90;;;;;;5006145;28;20452;-43
2022/01/15 02:51:43;;;;;;;27.33;11.98;;;5.60;99.90;;;;;;5007088;28;20030;-42
2022/01/15 02:54:09;;;;;;;27.38;11.15;;;5.60;99.90;;;;;;5006261;28;20053;-43
2022/01/15 02:56:39;;;;;;;26.63;12.27;;;5.50;99.90;;;;;;5006260;28;20377;-43
2022/01/15 02:59:07;;;;;;;23.98;10.90;;;5.50;99.90;;;;;;5006813;28;20030;-43
2022/01/15 03:01:34;;;;;;;25.13;10.82;;;5.60;99.90;;;;;;5006558;28;20072;-42
2022/01/15 03:04:00;;;;;;;23.90;10.52;;;5.60;99.90;;;;;;5005664;28;20038;-43
2022/01/15 03:06:25;;;;;;;26.83;11.05;;;5.60;99.90;;;;;;5007157;28;20073;-43
2022/01/15 03:08:52;;;;;;;21.02;10.43;;;5.60;99.90;;;;;;5006284;28;20062;-42
2022/01/15 03:11:18;;;;;;;20.95;9.35;;;5.50;99.90;;;;;;5006661;28;20026;-42
2022/01/15 03:13:44;;;;;;;19.48;9.18;;;5.50;99.90;;;;;;5006372;28;20032;-44
2022/01/15 03:16:13;;;;;;;20.70;8.88;;;5.50;99.90;;;;;;5006125;28;20139;-42
2022/01/15 03:18:39;;;;;;;24.00;9.45;;;5.50;99.90;;;;;;5006034;28;20034;-43
2022/01/15 03:21:05;;;;;;;22.95;11.30;;;5.50;99.90;;;;;;5006683;28;20036;-43
2022/01/15 03:23:30;;;;;;;25.73;10.98;;;5.60;99.90;;;;;;5006456;28;20481;-42
2022/01/15 03:25:56;;;;;;;22.23;10.10;;;5.50;99.90;;;;;;5005927;28;20049;-46
2022/01/15 03:28:22;;;;;;;25.30;10.60;;;5.50;99.90;;;;;;5006505;28;20030;-41
2022/01/15 03:30:48;;;;;;;19.20;10.45;;;5.50;99.90;;;;;;5006812;28;20057;-42
2022/01/15 03:33:14;;;;;;;24.33;11.25;;;5.60;99.90;;;;;;5008572;28;20022;-43
2022/01/15 03:35:39;;;;;;;22.55;11.13;;;5.50;99.90;;;;;;5010013;28;20124;-42
2022/01/15 03:38:06;;;;;;;22.98;10.80;;;5.50;99.90;;;;;;5009539;28;20021;-44
2022/01/15 03:40:32;;;;;;;20.30;9.43;;;5.40;99.90;;;;;;5009832;28;20092;-43
2022/01/15 03:42:59;;;;;;;24.65;11.93;;;5.40;99.90;;;;;;5009614;28;20114;-42
2022/01/15 03:45:34;;;;;;;22.95;11.02;;;5.40;99.90;;;;;;5008782;28;20030;-41
2022/01/15 03:47:59;;;;;;;20.27;9.82;;;5.40;99.90;;;;;;5010249;28;20103;-44
2022/01/15 03:50:29;;;;;;;20.85;10.32;;;5.40;99.90;;;;;;5009470;28;20045;-44
2022/01/15 03:52:57;;;;;;;18.63;8.82;;;5.40;99.90;;;;;;5008894;28;20025;-43
2022/01/15 03:55:23;;;;;;;16.17;8.82;;;5.40;99.90;;;;;;5009362;28;20118;-44
2022/01/15 03:57:51;;;;;;;18.67;9.77;;;5.40;99.90;;;;;;5009741;28;20049;-43
2022/01/15 04:00:21;;;;;;;19.95;9.35;;;5.40;99.90;;;;;;5009195;28;20076;-43
2022/01/15 04:02:48;;;;;;;18.00;9.68;;;5.40;99.90;;;;;;5009155;28;20041;-43
2022/01/15 04:05:15;;;;;;;18.30;9.45;;;5.40;99.90;;;;;;5009790;28;20025;-43
2022/01/15 04:07:41;;;;;;;20.85;9.90;;;5.40;99.90;;;;;;4997765;28;20060;-44
2022/01/15 04:10:09;;;;;;;18.00;9.40;;;5.40;99.90;;;;;;5009449;28;20046;-43
2022/01/15 04:12:35;;;;;;;17.17;9.68;;;5.40;99.90;;;;;;5009657;28;20038;-43
2022/01/15 04:15:01;;;;;;;16.52;9.68;;;5.40;99.90;;;;;;5008396;28;20585;-42
2022/01/15 04:17:26;;;;;;;17.83;9.60;;;5.40;99.90;;;;;;5008972;28;20021;-42
2022/01/15 04:19:52;;;;;;;13.85;8.32;;;5.50;99.90;;;;;;5009267;28;20472;-44
2022/01/15 04:22:18;;;;;;;15.40;9.45;;;5.50;99.90;;;;;;5008979;28;20026;-42
2022/01/15 04:24:44;;;;;;;19.40;9.95;;;5.50;99.90;;;;;;5009136;28;20519;-43
2022/01/15 04:27:09;;;;;;;17.98;9.80;;;5.50;99.90;;;;;;5008814;28;20026;-42
2022/01/15 04:29:35;;;;;;;17.65;10.30;;;5.40;99.90;;;;;;5008136;28;20140;-43
2022/01/15 04:32:02;;;;;;;18.38;10.65;;;5.40;99.90;;;;;;5009206;28;20076;-42
2022/01/15 04:34:29;;;;;;;20.35;11.27;;;5.40;99.90;;;;;;5008429;28;20036;-43
2022/01/15 04:37:03;;;;;;;21.10;11.80;;;5.40;99.90;;;;;;5008449;28;20026;-43
2022/01/15 04:39:29;;;;;;;21.05;12.57;;;5.40;99.90;;;;;;5008737;28;20058;-42
2022/01/15 04:41:54;;;;;;;24.55;13.32;;;5.40;99.90;;;;;;5008074;28;20080;-43
2022/01/15 04:44:20;;;;;;;22.25;12.20;;;5.40;99.90;;;;;;5008194;28;20469;-44
2022/01/15 04:46:45;;;;;;;23.90;13.38;;;5.30;99.90;;;;;;5008969;28;20244;-44
2022/01/15 04:49:11;;;;;;;25.13;13.18;;;5.30;99.90;;;;;;5008119;28;20695;-42
2022/01/15 04:51:36;;;;;;;25.10;13.68;;;5.30;99.90;;;;;;5008573;28;20018;-43
2022/01/15 04:54:03;;;;;;;23.10;13.52;;;5.30;99.90;;;;;;5007264;28;20050;-43
2022/01/15 04:56:31;;;;;;;22.70;13.00;;;5.30;99.90;;;;;;5008107;28;20030;-43
2022/01/15 04:58:57;;;;;;;23.17;13.48;;;5.30;99.90;;;;;;5004813;28;20117;-43
2022/01/15 05:01:22;;;;;;;24.30;13.15;;;5.30;99.90;;;;;;5008921;28;20112;-43
2022/01/15 05:03:51;;;;;;;26.02;15.05;;;5.30;99.90;;;;;;5007361;28;20061;-42
2022/01/15 05:06:16;;;;;;;25.33;13.75;;;5.30;99.90;;;;;;5008644;28;20029;-43
2022/01/15 05:08:44;;;;;;;27.92;14.15;;;5.30;99.90;;;;;;5008044;28;20034;-41
2022/01/15 05:11:26;;;;;;;29.08;14.52;;;5.30;99.90;;;;;;5007981;28;20034;-43
2022/01/15 05:13:54;;;;;;;25.60;14.02;;;5.30;99.90;;;;;;5008002;28;20076;-42
2022/01/15 05:16:20;;;;;;;25.70;13.50;;;5.40;99.90;;;;;;5008451;28;20560;-43
2022/01/15 05:18:45;;;;;;;26.08;14.13;;;5.30;99.90;;;;;;5007210;28;20021;-42
2022/01/15 05:21:11;;;;;;;26.35;15.52;;;5.40;99.90;;;;;;5008058;28;20026;-43
2022/01/15 05:23:36;;;;;;;22.00;13.32;;;5.30;99.90;;;;;;5007255;28;20032;-43
2022/01/15 05:26:02;;;;;;;25.20;13.68;;;5.40;99.90;;;;;;5008449;28;20022;-43
2022/01/15 05:28:28;;;;;;;27.42;16.10;;;5.30;99.90;;;;;;5007870;28;20521;-42
2022/01/15 05:30:59;;;;;;;27.50;14.52;;;5.30;99.90;;;;;;5007209;28;20030;-42
2022/01/15 05:33:24;;;;;;;27.00;13.65;;;5.30;99.90;;;;;;5007618;28;20021;-43
2022/01/15 05:35:50;;;;;;;26.33;14.68;;;5.30;99.90;;;;;;5008093;28;20030;-44
2022/01/15 05:38:15;;;;;;;23.60;12.98;;;5.30;99.90;;;;;;5007400;28;20038;-43
2022/01/15 05:40:41;;;;;;;25.58;15.25;;;5.30;99.90;;;;;;5007759;28;20057;-42
2022/01/15 05:43:06;;;;;;;27.05;14.90;;;5.30;99.90;;;;;;5007636;28;20109;-43
2022/01/15 05:45:32;;;;;;;29.90;15.15;;;5.30;99.90;;;;;;5006992;28;20033;-42
2022/01/15 05:47:58;;;;;;;28.00;15.07;;;5.30;99.90;;;;;;5007969;28;20025;-44
2022/01/15 05:50:26;;;;;;;28.42;15.77;;;5.30;99.90;;;;;;5007009;28;20133;-42
2022/01/15 05:52:52;;;;;;;27.92;15.80;;;5.30;99.90;;;;;;5006960;28;20029;-43
2022/01/15 05:55:17;;;;;;;27.65;15.30;;;5.30;99.90;;;;;;5007043;28;20052;-42
2022/01/15 05:57:43;;;;;;;24.10;14.63;;;5.30;99.90;;;;;;5007751;28;20029;-43
2022/01/15 06:00:09;;;;;;;25.45;13.80;;;5.30;99.90;;;;;;5006954;28;20037;-44
2022/01/15 06:02:34;;;;;;;27.73;14.75;;;5.30;99.90;;;;;;5007416;28;20075;-43
2022/01/15 06:05:00;;;;;;;25.95;14.20;;;5.30;99.90;;;;;;5007887;28;20061;-43
2022/01/15 06:07:26;;;;;;;29.92;14.90;;;5.30;99.90;;;;;;5006679;28;20068;-41
2022/01/15 06:09:51;;;;;;;26.33;15.00;;;5.30;99.90;;;;;;5007105;28;20045;-43
2022/01/15 06:12:17;;;;;;;25.40;13.90;;;5.30;99.90;;;;;;5007831;28;20034;-43
2022/01/15 06:14:42;;;;;;;23.10;13.45;;;5.20;99.90;;;;;;5006588;28;20076;-43
2022/01/15 06:17:08;;;;;;;23.08;13.45;;;5.20;99.90;;;;;;5007229;28;20511;-42
2022/01/15 06:19:37;;;;;;;26.33;13.68;;;5.20;99.90;;;;;;5007259;28;20022;-44
2022/01/15 06:22:03;;;;;;;25.23;14.27;;;5.20;99.90;;;;;;5006905;28;20022;-42
2022/01/15 06:24:32;;;;;;;23.52;13.25;;;5.20;99.90;;;;;;5007230;28;20049;-42
2022/01/15 06:26:57;;;;;;;26.90;14.07;;;5.20;99.90;;;;;;5007129;28;20113;-44
2022/01/15 06:29:24;;;;;;;25.08;12.88;;;5.20;99.90;;;;;;5007093;28;20034;-43
2022/01/15 06:31:49;;;;;;;23.05;12.52;;;5.20;99.90;;;;;;5006981;28;20018;-41
2022/01/15 06:34:15;;;;;;;25.10;13.07;;;5.20;99.90;;;;;;5006946;28;20033;-42
2022/01/15 06:36:40;;;;;;;27.17;13.48;;;5.20;99.90;;;;;;5007065;28;20082;-43
2022/01/15 06:39:06;;;;;;;27.92;13.27;;;5.20;99.90;;;;;;5007638;28;20042;-43
2022/01/15 06:41:31;;;;;;;19.08;11.63;;;5.20;99.90;;;;;;5006387;28;20034;-42
2022/01/15 06:43:57;;;;;;;24.17;13.73;;;5.20;99.90;;;;;;5006618;28;20109;-43
2022/01/15 06:46:22;;;;;;;26.67;13.85;;;5.10;99.90;;;;;;5007188;28;20030;-44
2022/01/15 06:48:48;;;;;;;27.00;13.88;;;5.10;99.90;;;;;;5006441;28;20025;-43
2022/01/15 06:51:13;;;;;;;24.10;13.07;;;5.10;99.90;;;;;;5007221;28;20539;-43
2022/01/15 06:53:39;;;;;;;29.65;14.25;;;5.10;99.90;;;;;;5007465;28;20034;-44
2022/01/15 06:56:04;;;;;;;35.75;15.57;;;5.10;99.90;;;;;;5005807;28;20116;-42
2022/01/15 06:58:30;;;;;;;30.65;17.00;;;5.10;99.90;;;;;;5006773;28;20049;-42
2022/01/15 07:00:59;;;;;;;30.83;17.30;;;5.10;99.90;;;;;;5006980;28;20014;-43
2022/01/15 07:03:24;;;;;;;40.55;16.95;;;5.10;99.90;;;;;;5006374;28;20053;-43
2022/01/15 07:05:51;;;;;;;32.22;16.05;;;5.10;99.90;;;;;;5006463;28;20527;-42
2022/01/15 07:08:16;;;;;;;37.90;16.83;;;5.10;99.90;;;;;;5009365;28;20030;-44
2022/01/15 07:10:43;;;;;;;29.70;16.35;;;5.10;99.90;;;;;;5009870;28;20144;-42
2022/01/15 07:13:09;;;;;;;49.03;18.33;;;5.10;99.90;;;;;;5010326;28;20084;-43
2022/01/15 07:15:34;;;;;;;47.03;18.88;;;5.10;99.90;;;;;;5011277;28;20037;-41
2022/01/15 07:18:00;;;;;;;42.22;19.08;;;5.10;99.90;;;;;;5009790;28;20487;-43
2022/01/15 07:20:27;;;;;;;32.45;17.27;;;5.10;99.90;;;;;;5010354;28;20026;-43
2022/01/15 07:22:53;;;;;;;43.70;18.35;;;5.10;99.90;;;;;;5010668;28;20034;-42
2022/01/15 07:25:19;;;;;;;53.78;21.50;;;5.00;99.90;;;;;;5010183;28;20076;-42
2022/01/15 07:27:46;;;;;;;35.95;19.73;;;5.00;99.90;;;;;;5010409;28;20022;-45
2022/01/15 07:30:13;;;;;;;44.17;19.13;;;5.00;99.90;;;;;;5009688;28;20034;-43
2022/01/15 07:32:40;;;;;;;48.28;20.55;;;5.00;99.90;;;;;;5010275;28;20020;-44
2022/01/15 07:35:06;;;;;;;39.85;20.02;;;5.00;99.90;;;;;;5010214;28;20398;-43
2022/01/15 07:37:44;;;;;;;57.80;21.10;;;5.00;99.90;;;;;;5009442;28;20020;-43
2022/01/15 07:40:10;;;;;;;43.78;20.10;;;5.00;99.90;;;;;;5010562;28;20032;-43
2022/01/15 07:42:38;;;;;;;47.42;21.70;;;5.00;99.90;;;;;;5009708;28;20109;-43
2022/01/15 07:45:06;;;;;;;36.97;21.27;;;5.00;99.90;;;;;;5009337;28;20034;-40
2022/01/15 07:47:31;;;;;;;40.40;20.77;;;5.00;99.90;;;;;;5010274;28;20021;-42
2022/01/15 07:49:57;;;;;;;36.47;19.58;;;5.00;99.90;;;;;;5009933;28;20038;-43
2022/01/15 07:52:23;;;;;;;38.78;20.70;;;4.90;99.90;;;;;;5009381;28;20532;-42
2022/01/15 07:54:48;;;;;;;35.28;20.08;;;4.90;99.90;;;;;;5009940;28;20056;-43
2022/01/15 07:57:14;;;;;;;40.35;22.13;;;4.90;99.90;;;;;;5009894;28;20022;-43
2022/01/15 07:59:39;;;;;;;38.50;20.42;;;5.00;99.90;;;;;;5008852;28;20480;-43
2022/01/15 08:02:05;;;;;;;45.15;21.20;;;4.90;99.90;;;;;;5010172;28;20593;-43
2022/01/15 08:04:31;;;;;;;44.30;20.70;;;4.90;99.90;;;;;;5009319;28;20088;-43
2022/01/15 08:06:56;;;;;;;42.83;21.50;;;4.90;99.90;;;;;;5009386;28;20030;-42
2022/01/15 08:09:22;;;;;;;36.88;19.20;;;4.90;99.90;;;;;;5009674;28;20122;-43
2022/01/15 08:11:50;;;;;;;47.70;20.13;;;5.00;99.90;;;;;;5009390;28;20029;-42
2022/01/15 08:14:16;;;;;;;42.55;21.88;;;5.00;99.90;;;;;;5008973;28;20038;-43
2022/01/15 08:16:41;;;;;;;43.45;21.75;;;5.00;99.90;;;;;;5006050;28;20088;-43
2022/01/15 08:19:07;;;;;;;47.15;21.73;;;5.00;99.90;;;;;;5006906;28;20035;-42
2022/01/15 08:21:32;;;;;;;42.63;21.55;;;5.00;99.90;;;;;;5007445;28;20120;-42
2022/01/15 08:23:58;;;;;;;43.45;21.05;;;5.00;99.90;;;;;;5008152;28;20085;-41
2022/01/15 08:26:24;;;;;;;55.72;22.73;;;5.00;99.90;;;;;;5007807;28;20036;-43
2022/01/15 08:28:49;;;;;;;52.47;22.45;;;5.00;99.90;;;;;;5008610;28;20278;-43
2022/01/15 08:31:15;;;;;;;56.92;23.55;;;5.00;99.90;;;;;;5008594;28;20065;-42
2022/01/15 08:33:41;;;;;;;44.13;22.63;;;5.00;99.90;;;;;;5007262;28;20476;-43
2022/01/15 08:36:06;;;;;;;59.42;23.42;;;5.00;99.90;;;;;;5008284;28;20029;-43
2022/01/15 08:38:35;;;;;;;45.25;22.58;;;5.00;99.90;;;;;;5008616;28;20041;-43
2022/01/15 08:41:00;;;;;;;46.97;23.55;;;5.10;99.90;;;;;;5006918;28;20148;-43
2022/01/15 08:43:29;;;;;;;52.92;23.17;;;5.00;99.90;;;;;;5008892;28;20444;-42
2022/01/15 08:45:54;;;;;;;54.42;23.63;;;5.00;99.90;;;;;;5007620;28;20034;-43
2022/01/15 08:48:20;;;;;;;51.60;22.83;;;5.00;99.90;;;;;;5007895;28;20041;-40
2022/01/15 08:50:49;;;;;;;59.22;25.40;;;5.10;99.90;;;;;;5007741;28;20030;-42
2022/01/15 08:53:17;;;;;;;56.75;24.33;;;5.00;99.90;;;;;;5008597;28;20099;-44
2022/01/15 08:55:43;;;;;;;57.40;25.45;;;5.00;99.90;;;;;;5006686;28;20470;-43
2022/01/15 08:58:09;;;;;;;53.53;23.77;;;5.00;99.90;;;;;;5008039;28;20034;-43
2022/01/15 09:00:34;;;;;;;60.25;25.58;;;5.00;99.90;;;;;;5007507;28;20516;-43
2022/01/15 09:03:01;;;;;;;57.00;23.67;;;5.00;99.90;;;;;;5007105;28;20061;-43
2022/01/15 09:05:26;;;;;;;62.33;23.27;;;5.00;99.90;;;;;;5007916;28;20037;-42
2022/01/15 09:07:52;;;;;;;56.03;23.15;;;5.00;99.90;;;;;;5007650;28;20489;-43
2022/01/15 09:10:18;;;;;;;59.97;22.45;;;5.00;99.90;;;;;;5006483;28;20040;-43
2022/01/15 09:12:44;;;;;;;56.78;22.58;;;5.10;99.90;;;;;;5007935;28;20065;-42
2022/01/15 09:15:10;;;;;;;52.33;21.92;;;5.10;99.90;;;;;;5007303;28;20026;-43
2022/01/15 09:17:38;;;;;;;60.30;22.70;;;5.10;99.90;;;;;;5006260;28;20030;-45
2022/01/15 09:20:04;;;;;;;51.53;21.63;;;5.10;99.90;;;;;;5007638;28;20073;-44
2022/01/15 09:22:30;;;;;;;48.92;21.55;;;5.10;99.90;;;;;;5006629;28;20041;-44
2022/01/15 09:24:55;;;;;;;58.65;21.55;;;5.20;99.90;;;;;;5006810;28;20022;-43
2022/01/15 09:30:12;;;;;;;44.45;18.67;;;5.20;99.90;;;;;;5006607;28;20132;-42
2022/01/15 09:32:44;;;;;;;43.47;20.00;;;5.30;99.90;;;;;;5007737;28;20029;-43
2022/01/15 09:35:11;;;;;;;45.70;20.63;;;5.30;99.90;;;;;;5007039;28;20025;-42
2022/01/15 09:37:36;;;;;;;61.78;21.75;;;5.30;99.90;;;;;;5006710;28;20022;-43
2022/01/15 09:40:04;;;;;;;52.92;21.63;;;5.20;99.90;;;;;;5007263;28;20702;-45
2022/01/15 09:42:30;;;;;;;42.10;19.63;;;5.20;99.90;;;;;;5007106;28;20109;-43
2022/01/15 09:44:55;;;;;;;54.67;21.17;;;5.20;99.90;;;;;;5006982;28;20022;-43
2022/01/15 09:47:22;;;;;;;72.20;21.40;;;5.20;99.90;;;;;;5006396;28;20024;-43
2022/01/15 09:49:48;;;;;;;52.05;21.10;;;5.20;99.90;;;;;;5006935;28;20030;-42
2022/01/15 09:52:16;;;;;;;50.08;18.77;;;5.20;99.90;;;;;;5006882;28;20018;-45
2022/01/15 09:54:42;;;;;;;48.95;19.98;;;5.30;99.90;;;;;;5007606;28;20060;-44
2022/01/15 09:57:08;;;;;;;38.92;17.92;;;5.30;99.90;;;;;;5007527;28;20018;-43
2022/01/15 09:59:34;;;;;;;44.13;18.98;;;5.30;99.90;;;;;;5006927;28;20425;-43
2022/01/15 10:02:03;;;;;;;42.42;18.52;;;5.30;99.90;;;;;;5007176;28;20522;-43
2022/01/15 10:04:32;;;;;;;39.38;17.30;;;5.40;99.90;;;;;;5007112;28;20048;-42
2022/01/15 10:07:28;;;;;;;46.35;18.60;;;5.40;99.90;;;;;;5004036;28;20026;-43
2022/01/15 10:09:55;;;;;;;33.50;17.13;;;5.50;99.90;;;;;;5004086;28;20100;-43
2022/01/15 10:12:42;;;;;;;48.22;18.70;;;5.50;99.90;;;;;;5006732;28;20069;-42
2022/01/15 10:15:08;;;;;;;43.63;19.33;;;5.50;99.90;;;;;;4997456;28;20038;-43
2022/01/15 10:17:35;;;;;;;38.90;18.08;;;5.50;99.90;;;;;;5006269;28;20029;-43
2022/01/15 10:20:18;;;;;;;38.40;17.95;;;5.40;99.90;;;;;;5006244;28;20120;-43
2022/01/15 10:22:46;;;;;;;40.45;19.10;;;5.50;99.90;;;;;;5006982;28;20018;-43
2022/01/15 10:25:18;;;;;;;52.50;19.30;;;5.40;99.90;;;;;;5007625;28;20113;-43
2022/01/15 10:27:54;;;;;;;42.13;19.87;;;5.50;99.90;;;;;;5006079;28;20400;-44
2022/01/15 10:30:26;;;;;;;46.95;20.05;;;5.50;99.90;;;;;;5005958;28;20048;-45
2022/01/15 10:32:59;;;;;;;57.15;20.90;;;5.50;99.90;;;;;;5006797;28;20030;-42
2022/01/15 10:35:32;;;;;;;53.95;23.23;;;5.50;99.90;;;;;;5006540;28;20644;-44
2022/01/15 10:38:03;;;;;;;43.42;21.02;;;5.50;99.90;;;;;;5007251;28;20105;-44
2022/01/15 10:40:39;;;;;;;53.70;24.33;;;5.50;99.90;;;;;;5005934;28;20414;-42
2022/01/15 10:43:05;;;;;;;56.88;24.10;;;5.50;99.90;;;;;;5009152;28;20069;-43
2022/01/15 10:45:31;;;;;;;50.58;22.27;;;5.50;99.90;;;;;;5010621;28;20065;-43
2022/01/15 10:48:01;;;;;;;48.90;23.38;;;5.50;99.90;;;;;;5010114;28;20028;-43
2022/01/15 10:50:33;;;;;;;49.45;21.90;;;5.50;99.90;;;;;;5010237;28;20784;-42
2022/01/15 10:53:10;;;;;;;42.60;20.25;;;5.50;99.90;;;;;;5013843;28;20041;-43
2022/01/15 10:55:37;;;;;;;42.58;19.42;;;5.50;99.90;;;;;;5012531;28;20042;-43
2022/01/15 10:58:11;;;;;;;47.42;19.90;;;5.60;99.90;;;;;;5011502;28;20030;-43
2022/01/15 11:00:36;;;;;;;43.95;18.90;;;5.60;99.90;;;;;;5010080;28;20044;-43
2022/01/15 11:03:10;;;;;;;39.92;16.60;;;5.70;99.90;;;;;;5010457;28;20485;-41
2022/01/15 11:05:37;;;;;;;44.63;18.60;;;5.60;99.90;;;;;;5011806;28;20025;-43
2022/01/15 11:08:04;;;;;;;39.72;18.98;;;5.60;99.90;;;;;;4992172;28;20120;-43
2022/01/15 11:10:40;;;;;;;35.97;18.10;;;5.60;99.90;;;;;;5009593;28;20042;-43
2022/01/15 11:13:10;;;;;;;42.55;18.00;;;5.60;99.90;;;;;;5010197;28;20032;-43
2022/01/15 11:15:36;;;;;;;43.88;19.65;;;5.60;99.90;;;;;;5009829;28;20630;-43
2022/01/15 11:18:03;;;;;;;37.95;19.50;;;5.50;99.90;;;;;;5010382;28;20037;-43
2022/01/15 11:20:31;;;;;;;41.97;20.48;;;5.50;99.90;;;;;;5009370;28;20030;-42
2022/01/15 11:22:59;;;;;;;42.75;20.13;;;5.50;99.90;;;;;;5009605;28;20037;-43
2022/01/15 11:25:25;;;;;;;44.35;18.75;;;5.40;99.90;;;;;;5010120;28;20045;-43
2022/01/15 11:27:51;;;;;;;33.53;17.92;;;5.40;99.90;;;;;;5010382;28;20389;-44
2022/01/15 11:30:19;;;;;;;35.88;18.77;;;5.40;99.90;;;;;;5009820;28;20435;-42
2022/01/15 11:32:45;;;;;;;35.35;19.27;;;5.40;99.90;;;;;;5010383;28;20041;-43
2022/01/15 11:35:11;;;;;;;36.65;19.13;;;5.30;99.90;;;;;;5010111;28;20034;-42
2022/01/15 11:37:56;;;;;;;52.60;21.67;;;5.40;99.90;;;;;;5009143;28;20022;-43
2022/01/15 11:40:35;;;;;;;43.65;20.35;;;5.30;99.90;;;;;;5010484;28;20385;-43
2022/01/15 11:43:26;;;;;;;43.67;20.55;;;5.20;99.90;;;;;;5000185;28;20121;-43
2022/01/15 11:45:57;;;;;;;44.00;19.58;;;5.20;99.90;;;;;;5009667;28;20106;-43
2022/01/15 11:48:28;;;;;;;43.17;21.02;;;5.20;99.90;;;;;;5009656;28;20037;-42
2022/01/15 11:51:12;;;;;;;38.65;18.23;;;5.20;99.90;;;;;;5006310;28;20033;-43
2022/01/15 11:53:49;;;;;;;40.10;20.75;;;5.20;99.90;;;;;;5008809;28;20072;-42
2022/01/15 11:56:20;;;;;;;38.20;18.85;;;5.20;99.90;;;;;;5009716;28;20080;-43
2022/01/15 11:58:48;;;;;;;35.75;18.65;;;5.10;99.90;;;;;;5008613;28;20161;-44
2022/01/15 12:01:41;;;;;;;37.75;18.88;;;5.10;99.90;;;;;;5009556;28;20457;-43
2022/01/15 12:04:22;;;;;;;45.10;20.20;;;5.10;99.90;;;;;;5009774;28;20021;-43
2022/01/15 12:07:06;;;;;;;41.13;19.63;;;5.10;99.90;;;;;;5009125;28;20410;-42
2022/01/15 12:09:34;;;;;;;;;;;5.20;99.90;;;;;;5009970;28;20129;-44
2022/01/15 12:12:32;;;;;;;33.55;16.73;;;5.20;99.90;;;;;;5008353;28;19961;-43
2022/01/15 12:14:57;;;;;;;28.73;15.50;;;5.20;99.90;;;;;;5009027;28;20457;-43
2022/01/15 12:17:36;;;;;;;38.45;15.75;;;5.30;99.90;;;;;;5009182;28;20073;-43
2022/01/15 12:20:05;;;;;;;29.63;15.57;;;5.30;99.90;;;;;;5008822;28;20025;-43
2022/01/15 12:22:44;;;;;;;35.17;17.80;;;5.30;99.90;;;;;;5009026;28;20025;-43
2022/01/15 12:25:13;;;;;;;34.30;17.75;;;5.30;99.90;;;;;;5009460;28;20026;-43
2022/01/15 12:27:40;;;;;;;37.75;19.83;;;5.30;99.90;;;;;;5008113;28;20029;-43
2022/01/15 12:30:19;;;;;;;36.33;19.52;;;5.30;99.90;;;;;;5008875;28;20049;-44
2022/01/15 12:32:51;;;;;;;41.47;21.58;;;5.30;99.90;;;;;;5007835;28;20500;-43
2022/01/15 12:35:25;;;;;;;42.40;19.77;;;5.20;99.90;;;;;;5009660;28;20042;-44
2022/01/15 12:38:11;;;;;;;42.38;20.00;;;5.20;99.90;;;;;;5008437;28;20029;-44
2022/01/15 12:40:46;;;;;;;37.13;18.77;;;5.20;99.90;;;;;;5008356;28;20028;-43
2022/01/15 12:43:17;;;;;;;42.75;19.58;;;5.20;99.90;;;;;;5009110;28;20061;-43
2022/01/15 12:45:46;;;;;;;35.78;17.23;;;5.30;99.90;;;;;;5008573;28;20412;-44
2022/01/15 12:48:17;;;;;;;33.13;15.70;;;5.30;99.90;;;;;;5007873;28;20095;-43
2022/01/15 12:51:04;;;;;;;42.30;20.42;;;5.30;99.90;;;;;;5008643;28;20633;-43
2022/01/15 12:53:35;;;;;;;46.55;22.17;;;5.30;99.90;;;;;;5008854;28;20029;-43
2022/01/15 12:56:11;;;;;;;47.58;23.23;;;5.30;99.90;;;;;;5008169;28;20136;-43
2022/01/15 12:58:39;;;;;;;47.25;23.05;;;5.30;99.90;;;;;;5008657;28;20438;-43
2022/01/15 13:01:05;;;;;;;51.00;22.58;;;5.30;99.90;;;;;;5007463;28;20034;-42
2022/01/15 13:03:36;;;;;;;48.85;22.95;;;5.30;99.90;;;;;;5008379;28;20034;-43
2022/01/15 13:06:03;;;;;;;53.08;23.33;;;5.30;99.90;;;;;;5007420;28;20033;-42
2022/01/15 13:08:34;;;;;;;48.30;21.50;;;5.30;99.90;;;;;;5007620;28;20022;-44